createdAt,value
2022-10-16T00:00:30.778Z,2.55
2022-10-16T00:02:57.364Z,3.88
2022-10-16T00:05:23.893Z,2.03
2022-10-16T00:07:50.468Z,8.65
2022-10-16T00:10:17.236Z,2.60
2022-10-16T00:12:43.714Z,2.42
2022-10-16T00:15:10.600Z,2.25
2022-10-16T00:17:37.145Z,4.15
2022-10-16T00:20:04.163Z,8.02
2022-10-16T00:22:30.671Z,3.20
2022-10-16T00:24:57.126Z,1.83
2022-10-16T00:27:23.627Z,2.58
2022-10-16T00:29:53.392Z,2.20
2022-10-16T00:32:20.722Z,2.22
2022-10-16T00:34:49.762Z,2.13
2022-10-16T00:37:16.314Z,3.95
2022-10-16T00:39:42.832Z,6.72
2022-10-16T00:42:16.425Z,2.53
2022-10-16T00:44:47.924Z,2.85
2022-10-16T00:47:28.910Z,5.20
2022-10-16T00:50:01.929Z,3.58
2022-10-16T00:52:29.074Z,2.30
2022-10-16T00:54:57.043Z,2.65
2022-10-16T00:57:24.115Z,3.05
2022-10-16T00:59:50.906Z,4.00
2022-10-16T01:02:17.898Z,2.97
2022-10-16T01:04:53.910Z,4.32
2022-10-16T01:07:35.476Z,4.72
2022-10-16T01:10:33.847Z,2.17
2022-10-16T01:13:38.368Z,7.15
2022-10-16T01:16:13.197Z,2.28
2022-10-16T01:18:55.521Z,2.53
2022-10-16T01:21:33.164Z,2.17
2022-10-16T01:23:59.604Z,4.95
2022-10-16T01:26:47.909Z,4.70
2022-10-16T01:29:21.752Z,3.35
2022-10-16T01:32:05.182Z,2.92
2022-10-16T01:34:43.012Z,6.10
2022-10-16T01:37:15.494Z,3.83
2022-10-16T01:39:46.208Z,4.10
2022-10-16T01:42:18.689Z,2.63
2022-10-16T01:44:48.151Z,3.75
2022-10-16T01:47:16.615Z,2.47
2022-10-16T01:49:45.778Z,3.03
2022-10-16T01:52:18.480Z,4.57
2022-10-16T01:54:48.651Z,2.95
2022-10-16T01:57:17.294Z,4.78
2022-10-16T01:59:48.891Z,3.08
2022-10-16T02:02:18.343Z,3.28
2022-10-16T02:04:49.802Z,3.63
2022-10-16T02:07:17.317Z,3.88
2022-10-16T02:09:44.348Z,7.32
2022-10-16T02:12:28.185Z,3.58
2022-10-16T02:14:55.449Z,3.22
2022-10-16T02:17:22.294Z,3.83
2022-10-16T02:19:51.259Z,3.15
2022-10-16T02:22:30.048Z,2.53
2022-10-16T02:25:30.899Z,5.55
2022-10-16T02:28:17.119Z,4.57
2022-10-16T02:30:52.027Z,3.10
2022-10-16T02:33:21.482Z,4.20
2022-10-16T02:35:51.630Z,5.53
2022-10-16T02:38:19.556Z,3.95
2022-10-16T02:40:46.227Z,3.65
2022-10-16T02:43:12.908Z,8.20
2022-10-16T02:45:39.455Z,5.38
2022-10-16T02:48:06.448Z,4.82
2022-10-16T02:50:33.137Z,4.75
2022-10-16T02:52:59.607Z,4.28
2022-10-16T02:55:27.095Z,4.00
2022-10-16T02:57:53.592Z,4.05
2022-10-16T03:00:20.128Z,4.20
2022-10-16T03:02:47.640Z,3.45
2022-10-16T03:05:14.701Z,4.30
2022-10-16T03:07:41.497Z,4.05
2022-10-16T03:10:08.463Z,4.03
2022-10-16T03:12:35.050Z,6.15
2022-10-16T03:15:01.973Z,3.50
2022-10-16T03:17:28.746Z,5.95
2022-10-16T03:19:55.484Z,2.83
2022-10-16T03:22:21.995Z,3.13
2022-10-16T03:24:48.539Z,2.90
2022-10-16T03:27:15.101Z,2.70
2022-10-16T03:29:42.385Z,2.78
2022-10-16T03:32:08.998Z,4.55
2022-10-16T03:34:35.522Z,2.90
2022-10-16T03:37:02.104Z,3.65
2022-10-16T03:39:28.794Z,3.80
2022-10-16T03:41:55.258Z,5.13
2022-10-16T03:44:22.409Z,7.43
2022-10-16T03:46:48.866Z,4.20
2022-10-16T03:49:15.379Z,3.15
2022-10-16T03:51:41.873Z,5.65
2022-10-16T03:54:08.363Z,6.88
2022-10-16T03:56:34.855Z,5.53
2022-10-16T03:59:01.317Z,3.95
2022-10-16T04:01:30.401Z,5.50
2022-10-16T04:03:56.917Z,5.22
2022-10-16T04:06:23.536Z,2.85
2022-10-16T04:08:50.269Z,3.38
2022-10-16T04:11:16.799Z,4.63
2022-10-16T04:13:43.317Z,4.30
2022-10-16T04:16:09.806Z,5.78
2022-10-16T04:18:36.316Z,3.15
2022-10-16T04:21:05.167Z,3.85
2022-10-16T04:23:32.044Z,3.30
2022-10-16T04:25:58.676Z,3.17
2022-10-16T04:28:25.226Z,4.65
2022-10-16T04:30:51.780Z,2.95
2022-10-16T04:33:18.219Z,3.03
2022-10-16T04:35:44.750Z,2.22
2022-10-16T04:38:11.323Z,3.28
2022-10-16T04:40:37.772Z,5.65
2022-10-16T04:43:05.323Z,4.38
2022-10-16T04:45:31.785Z,3.20
2022-10-16T04:48:01.555Z,2.58
2022-10-16T04:50:28.026Z,3.88
2022-10-16T04:52:54.558Z,5.25
2022-10-16T04:55:21.192Z,5.38
2022-10-16T04:57:47.681Z,1.77
2022-10-16T05:00:14.316Z,2.90
2022-10-16T05:02:40.834Z,3.60
2022-10-16T05:05:07.950Z,3.33
2022-10-16T05:07:34.423Z,1.77
2022-10-16T05:10:00.885Z,4.40
2022-10-16T05:12:27.619Z,6.13
2022-10-16T05:14:54.074Z,4.20
2022-10-16T05:17:20.540Z,4.70
2022-10-16T05:19:47.013Z,3.67
2022-10-16T05:22:13.461Z,3.58
2022-10-16T05:24:40.053Z,6.90
2022-10-16T05:27:06.543Z,2.85
2022-10-16T05:29:33.089Z,2.63
2022-10-16T05:31:59.545Z,3.35
2022-10-16T05:34:26.162Z,2.83
2022-10-16T05:36:52.611Z,4.07
2022-10-16T05:39:19.370Z,1.88
2022-10-16T05:41:46.114Z,3.10
2022-10-16T05:44:12.664Z,1.85
2022-10-16T05:46:39.201Z,6.60
2022-10-16T05:49:05.744Z,1.98
2022-10-16T05:51:32.295Z,3.88
2022-10-16T05:53:58.776Z,3.10
2022-10-16T05:56:25.316Z,2.00
2022-10-16T05:58:51.781Z,5.30
2022-10-16T06:01:19.825Z,2.63
2022-10-16T06:03:46.538Z,2.75
2022-10-16T06:06:16.025Z,4.38
2022-10-16T06:08:44.440Z,4.40
2022-10-16T06:11:24.447Z,2.63
2022-10-16T06:13:57.434Z,2.30
2022-10-16T06:16:25.796Z,2.28
2022-10-16T06:18:53.515Z,5.00
2022-10-16T06:21:22.931Z,2.33
2022-10-16T06:23:49.481Z,2.95
2022-10-16T06:26:19.380Z,3.22
2022-10-16T06:28:46.054Z,1.42
2022-10-16T06:31:13.384Z,4.32
2022-10-16T06:33:40.415Z,2.47
2022-10-16T06:36:12.477Z,1.98
2022-10-16T06:38:39.719Z,3.28
2022-10-16T06:41:07.709Z,2.00
2022-10-16T06:43:36.225Z,2.95
2022-10-16T06:46:03.880Z,2.78
2022-10-16T06:48:31.916Z,5.80
2022-10-16T06:50:59.313Z,2.78
2022-10-16T06:53:27.514Z,3.50
2022-10-16T06:55:54.063Z,1.70
2022-10-16T06:58:20.874Z,1.90
2022-10-16T07:00:47.803Z,4.20
2022-10-16T07:03:15.070Z,3.67
2022-10-16T07:05:43.224Z,4.13
2022-10-16T07:08:10.814Z,3.03
2022-10-16T07:10:37.402Z,3.63
2022-10-16T07:13:04.293Z,2.53
2022-10-16T07:15:30.751Z,2.47
2022-10-16T07:17:57.237Z,2.30
2022-10-16T07:20:23.752Z,1.30
2022-10-16T07:22:50.916Z,3.83
2022-10-16T07:25:17.698Z,5.22
2022-10-16T07:27:44.254Z,3.05
2022-10-16T07:30:10.994Z,2.30
2022-10-16T07:32:37.844Z,1.50
2022-10-16T07:35:04.779Z,4.00
2022-10-16T07:37:31.407Z,5.10
2022-10-16T07:39:57.885Z,2.53
2022-10-16T07:42:24.388Z,4.22
2022-10-16T07:44:50.854Z,2.00
2022-10-16T07:47:17.347Z,3.25
2022-10-16T07:49:43.854Z,1.90
2022-10-16T07:52:13.856Z,2.13
2022-10-16T07:54:40.572Z,4.97
2022-10-16T07:57:07.047Z,4.85
2022-10-16T07:59:33.543Z,4.70
2022-10-16T08:01:59.991Z,1.50
2022-10-16T08:04:26.658Z,2.70
2022-10-16T08:06:53.172Z,3.83
2022-10-16T08:09:19.847Z,3.60
2022-10-16T08:11:46.290Z,1.95
2022-10-16T08:14:12.888Z,3.95
2022-10-16T08:16:39.349Z,7.50
2022-10-16T08:19:05.831Z,2.53
2022-10-16T08:21:32.387Z,3.58
2022-10-16T08:23:59.862Z,1.50
2022-10-16T08:26:27.549Z,2.35
2022-10-16T08:28:54.221Z,2.75
2022-10-16T08:31:21.475Z,1.60
2022-10-16T08:33:48.732Z,2.20
2022-10-16T08:36:16.875Z,1.55
2022-10-16T08:38:43.657Z,2.42
2022-10-16T08:41:57.690Z,3.42
2022-10-16T08:44:31.919Z,3.72
2022-10-16T08:47:23.200Z,2.70
2022-10-16T08:50:02.825Z,4.73
2022-10-16T08:52:36.437Z,1.73
2022-10-16T08:55:04.768Z,3.35
2022-10-16T08:57:33.557Z,1.10
2022-10-16T09:00:13.617Z,1.45
2022-10-16T09:02:51.830Z,2.72
2022-10-16T09:05:24.173Z,2.22
2022-10-16T09:07:50.676Z,3.60
2022-10-16T09:10:42.821Z,4.28
2022-10-16T09:13:12.024Z,2.35
2022-10-16T09:15:54.070Z,1.92
2022-10-16T09:21:25.515Z,3.15
2022-10-16T09:23:52.625Z,3.03
2022-10-16T09:26:20.679Z,3.10
2022-10-16T09:28:48.755Z,1.67
2022-10-16T09:31:23.180Z,3.67
2022-10-16T09:33:54.829Z,4.28
2022-10-16T09:36:24.210Z,1.08
2022-10-16T09:38:51.198Z,2.70
2022-10-16T09:41:23.200Z,3.45
2022-10-16T09:43:58.249Z,2.33
2022-10-16T09:46:33.202Z,3.97
2022-10-16T09:49:02.623Z,4.63
2022-10-16T09:51:31.682Z,5.00
2022-10-16T09:54:13.473Z,1.45
2022-10-16T09:56:40.262Z,1.58
2022-10-16T09:59:14.078Z,1.13
2022-10-16T10:01:44.002Z,2.13
2022-10-16T10:04:11.306Z,1.27
2022-10-16T10:06:44.294Z,4.85
2022-10-16T10:09:26.710Z,3.40
2022-10-16T10:12:04.127Z,3.75
2022-10-16T10:14:41.080Z,2.50
2022-10-16T10:17:07.497Z,3.28
2022-10-16T10:19:53.055Z,3.70
2022-10-16T10:22:24.954Z,1.38
2022-10-16T10:24:58.435Z,1.75
2022-10-16T10:27:49.370Z,1.95
2022-10-16T10:30:29.549Z,1.73
2022-10-16T10:33:04.809Z,2.85
2022-10-16T10:36:03.017Z,5.30
2022-10-16T10:38:38.788Z,4.63
2022-10-16T10:41:32.964Z,5.63
2022-10-16T10:44:07.189Z,2.00
2022-10-16T10:46:45.456Z,2.55
2022-10-16T10:50:00.253Z,14.63
2022-10-16T10:52:42.274Z,2.30
2022-10-16T10:58:36.156Z,4.03
2022-10-16T11:01:11.192Z,2.35
2022-10-16T11:04:09.841Z,4.75
2022-10-16T11:06:45.535Z,1.63
2022-10-16T11:09:16.120Z,1.50
2022-10-16T11:11:50.775Z,0.90
2022-10-16T11:14:30.197Z,1.88
2022-10-16T11:17:05.097Z,2.20
2022-10-16T11:19:53.185Z,7.00
2022-10-16T11:22:35.396Z,3.55
2022-10-16T11:25:20.265Z,2.72
2022-10-16T11:28:00.306Z,2.65
2022-10-16T11:30:29.906Z,4.72
2022-10-16T11:33:34.971Z,3.53
2022-10-16T11:36:04.922Z,2.22
2022-10-16T11:38:55.709Z,2.75
2022-10-16T11:41:25.134Z,2.55
2022-10-16T11:43:57.254Z,4.45
2022-10-16T11:46:25.672Z,3.40
2022-10-16T11:49:16.819Z,2.45
2022-10-16T11:51:49.667Z,8.15
2022-10-16T11:54:25.600Z,2.28
2022-10-16T11:56:58.466Z,2.35
2022-10-16T11:59:29.967Z,4.57
2022-10-16T12:02:28.059Z,4.63
2022-10-16T12:05:20.824Z,2.38
2022-10-16T12:08:17.243Z,4.05
2022-10-16T12:10:49.900Z,2.50
2022-10-16T12:13:36.473Z,1.33
2022-10-16T12:16:14.934Z,2.67
2022-10-16T12:18:43.709Z,2.63
2022-10-16T12:21:14.335Z,2.13
2022-10-16T12:23:59.441Z,0.77
2022-10-16T12:26:32.366Z,4.05
2022-10-16T12:29:12.941Z,2.55
2022-10-16T12:31:54.587Z,4.20
2022-10-16T12:34:38.401Z,3.80
2022-10-16T12:37:25.152Z,1.58
2022-10-16T12:39:54.295Z,3.72
2022-10-16T12:42:31.097Z,1.50
2022-10-16T12:44:58.053Z,1.00
2022-10-16T12:47:33.457Z,1.42
2022-10-16T12:50:02.322Z,2.85
2022-10-16T12:52:34.660Z,2.55
2022-10-16T12:55:02.046Z,1.67
2022-10-16T12:58:08.592Z,2.00
2022-10-16T13:01:01.345Z,1.88
2022-10-16T13:03:31.069Z,2.65
2022-10-16T13:06:20.871Z,3.45
2022-10-16T13:08:57.054Z,0.98
2022-10-16T13:11:54.248Z,1.27
2022-10-16T13:14:51.548Z,1.63
2022-10-16T13:17:24.303Z,3.30
2022-10-16T13:20:21.926Z,3.00
2022-10-16T13:23:09.777Z,2.78
2022-10-16T13:26:15.135Z,3.67
2022-10-16T13:28:41.886Z,2.42
2022-10-16T13:31:18.370Z,1.20
2022-10-16T13:33:49.369Z,0.77
2022-10-16T13:36:28.066Z,5.47
2022-10-16T13:39:14.715Z,0.98
2022-10-16T13:41:41.912Z,1.40
2022-10-16T13:44:16.848Z,1.30
2022-10-16T13:46:43.534Z,1.80
2022-10-16T13:49:18.168Z,1.48
2022-10-16T13:51:58.641Z,1.90
2022-10-16T13:54:27.797Z,0.85
2022-10-16T13:57:03.308Z,1.02
2022-10-16T13:59:39.808Z,2.03
2022-10-16T14:02:36.778Z,0.70
2022-10-16T14:05:05.697Z,3.97
2022-10-16T14:07:35.108Z,2.53
2022-10-16T14:10:07.802Z,2.20
2022-10-16T14:12:35.595Z,2.50
2022-10-16T14:15:02.703Z,1.20
2022-10-16T14:17:34.347Z,1.30
2022-10-16T14:20:06.670Z,2.58
2022-10-16T14:22:33.441Z,1.88
2022-10-16T14:25:00.311Z,1.10
2022-10-16T14:27:35.287Z,1.75
2022-10-16T14:30:16.810Z,0.88
2022-10-16T14:33:01.021Z,2.05
2022-10-16T14:35:34.577Z,1.42
2022-10-16T14:38:03.707Z,4.30
2022-10-16T14:40:32.762Z,2.63
2022-10-16T14:43:00.325Z,6.22
2022-10-16T14:45:30.624Z,1.30
2022-10-16T14:47:59.980Z,1.73
2022-10-16T14:50:26.719Z,3.92
2022-10-16T14:52:53.351Z,2.15
2022-10-16T14:55:20.680Z,1.15
2022-10-16T14:57:48.390Z,2.20
2022-10-16T15:00:19.429Z,3.15
2022-10-16T15:02:46.838Z,3.23
2022-10-16T15:05:23.171Z,3.42
2022-10-16T15:07:50.258Z,2.88
2022-10-16T15:10:18.461Z,3.80
2022-10-16T15:12:45.442Z,2.13
2022-10-16T15:15:36.655Z,5.00
2022-10-16T15:18:04.161Z,3.22
2022-10-16T15:20:35.359Z,2.65
2022-10-16T15:23:10.700Z,4.07
2022-10-16T15:25:45.065Z,1.48
2022-10-16T15:28:13.307Z,2.33
2022-10-16T15:30:40.317Z,1.10
2022-10-16T15:33:18.402Z,3.70
2022-10-16T15:35:48.956Z,3.65
2022-10-16T15:38:16.636Z,1.58
2022-10-16T15:40:43.328Z,2.13
2022-10-16T15:43:10.005Z,0.80
2022-10-16T15:45:36.455Z,2.78
2022-10-16T15:48:03.197Z,1.95
2022-10-16T15:50:31.842Z,0.98
2022-10-16T15:52:58.673Z,0.65
2022-10-16T15:55:25.630Z,3.35
2022-10-16T15:57:52.134Z,4.78
2022-10-16T16:00:26.337Z,2.92
2022-10-16T16:02:55.133Z,5.28
2022-10-16T16:05:23.009Z,1.75
2022-10-16T16:07:50.643Z,1.50
2022-10-16T16:10:17.840Z,4.05
2022-10-16T16:12:44.345Z,3.60
2022-10-16T16:15:11.239Z,2.85
2022-10-16T16:17:37.988Z,3.45
2022-10-16T16:20:06.049Z,1.40
2022-10-16T16:22:32.947Z,2.35
2022-10-16T16:24:59.474Z,2.20
2022-10-16T16:27:26.769Z,3.90
2022-10-16T16:29:54.268Z,2.25
2022-10-16T16:32:20.911Z,7.72
2022-10-16T16:34:47.724Z,1.77
2022-10-16T16:37:14.569Z,3.58
2022-10-16T16:39:41.097Z,2.90
2022-10-16T16:42:08.399Z,2.75
2022-10-16T16:44:37.216Z,2.97
2022-10-16T16:47:05.533Z,3.22
2022-10-16T16:49:32.168Z,6.07
2022-10-16T16:51:58.789Z,7.07
2022-10-16T16:54:25.454Z,10.68
2022-10-16T16:56:52.017Z,6.50
2022-10-16T16:59:21.091Z,7.32
2022-10-16T17:01:49.929Z,8.02
2022-10-16T17:04:19.843Z,12.00
2022-10-16T17:06:48.975Z,9.15
2022-10-16T17:09:16.189Z,8.57
2022-10-16T17:11:44.024Z,7.32
2022-10-16T17:14:11.075Z,9.25
2022-10-16T17:16:39.402Z,9.43
2022-10-16T17:19:09.488Z,7.05
2022-10-16T17:21:36.378Z,8.13
2022-10-16T17:24:03.686Z,7.80
2022-10-16T17:26:30.903Z,8.25
2022-10-16T17:29:00.019Z,9.18
2022-10-16T17:31:32.482Z,9.10
2022-10-16T17:34:00.431Z,37.35
2022-10-16T17:36:29.714Z,70.28
2022-10-16T17:39:00.391Z,46.80
2022-10-16T17:41:27.428Z,12.65
2022-10-16T17:43:54.346Z,14.10
2022-10-16T17:46:22.709Z,8.85
2022-10-16T17:48:51.854Z,10.90
2022-10-16T17:51:21.370Z,9.60
2022-10-16T17:53:57.815Z,7.32
2022-10-16T17:56:25.576Z,6.70
2022-10-16T17:59:00.239Z,5.32
2022-10-16T18:01:30.179Z,6.20
2022-10-16T18:04:03.114Z,5.32
2022-10-16T18:06:31.336Z,5.97
2022-10-16T18:08:59.207Z,7.32
2022-10-16T18:11:26.541Z,6.68
2022-10-16T18:13:54.586Z,7.43
2022-10-16T18:16:21.787Z,10.38
2022-10-16T18:18:48.864Z,9.88
2022-10-16T18:21:17.999Z,9.85
2022-10-16T18:23:50.804Z,11.20
2022-10-16T18:26:20.072Z,12.05
2022-10-16T18:28:46.800Z,6.47
2022-10-16T18:31:16.466Z,9.48
2022-10-16T18:33:48.223Z,6.22
2022-10-16T18:36:15.963Z,13.63
2022-10-16T18:38:42.925Z,16.55
2022-10-16T18:41:10.573Z,16.63
2022-10-16T18:43:38.879Z,23.02
2022-10-16T18:46:08.258Z,16.98
2022-10-16T18:48:37.405Z,21.10
2022-10-16T18:51:38.024Z,17.95
2022-10-16T18:54:09.197Z,22.33
2022-10-16T18:56:35.938Z,26.05
2022-10-16T18:59:04.899Z,23.52
2022-10-16T19:01:33.984Z,15.05
2022-10-16T19:04:05.974Z,16.08
2022-10-16T19:09:11.120Z,18.10
2022-10-16T19:11:41.308Z,14.48
2022-10-16T19:14:13.048Z,10.30
2022-10-16T19:16:42.695Z,8.90
2022-10-16T19:19:14.021Z,10.70
2022-10-16T19:21:44.060Z,9.75
2022-10-16T19:24:15.455Z,9.10
2022-10-16T19:26:42.867Z,7.85
2022-10-16T19:29:10.644Z,12.70
2022-10-16T19:31:40.990Z,9.93
2022-10-16T19:34:09.629Z,7.22
2022-10-16T19:36:37.952Z,10.82
2022-10-16T19:39:12.955Z,8.23
2022-10-16T19:41:39.613Z,9.73
2022-10-16T19:44:09.508Z,7.53
2022-10-16T19:46:36.812Z,9.68
2022-10-16T19:49:09.100Z,7.88
2022-10-16T19:51:36.008Z,8.50
2022-10-16T19:54:05.820Z,10.73
2022-10-16T19:56:34.290Z,7.47
2022-10-16T19:59:01.052Z,7.35
2022-10-16T20:01:29.467Z,7.07
2022-10-16T20:03:56.620Z,6.90
2022-10-16T20:06:23.517Z,6.80
2022-10-16T20:08:51.724Z,10.15
2022-10-16T20:11:24.566Z,6.72
2022-10-16T20:13:51.371Z,4.60
2022-10-16T20:16:19.922Z,6.07
2022-10-16T20:18:48.793Z,6.07
2022-10-16T20:21:18.432Z,4.15
2022-10-16T20:23:47.101Z,5.57
2022-10-16T20:26:13.619Z,7.38
2022-10-16T20:28:41.198Z,9.40
2022-10-16T20:31:19.713Z,7.10
2022-10-16T20:33:46.257Z,4.55
2022-10-16T20:36:17.343Z,10.90
2022-10-16T20:38:44.281Z,6.90
2022-10-16T20:41:11.676Z,6.90
2022-10-16T20:46:19.127Z,3.78
2022-10-16T20:48:47.086Z,4.80
2022-10-16T20:51:28.984Z,7.90
2022-10-16T20:53:58.255Z,5.15
2022-10-16T20:56:26.195Z,4.53
2022-10-16T20:58:53.466Z,6.43
2022-10-16T21:01:23.021Z,7.82
2022-10-16T21:03:52.463Z,7.05
2022-10-16T21:06:19.054Z,6.85
2022-10-16T21:08:45.923Z,4.45
2022-10-16T21:11:23.408Z,3.25
2022-10-16T21:13:52.615Z,4.60
2022-10-16T21:16:19.370Z,8.35
2022-10-16T21:18:45.907Z,4.80
2022-10-16T21:21:23.549Z,3.20
2022-10-16T21:23:51.278Z,5.93
2022-10-16T21:26:18.901Z,5.57
2022-10-16T21:28:45.464Z,5.60
2022-10-16T21:31:19.071Z,4.95
2022-10-16T21:33:46.618Z,3.78
2022-10-16T21:36:21.457Z,3.83
2022-10-16T21:38:49.004Z,2.97
2022-10-16T21:41:24.082Z,4.57
2022-10-16T21:43:51.531Z,4.13
2022-10-16T21:46:21.989Z,4.43
2022-10-16T21:48:49.036Z,3.75
2022-10-16T21:51:15.634Z,3.60
2022-10-16T21:53:42.216Z,3.17
2022-10-16T21:56:16.531Z,2.40
2022-10-16T21:58:44.572Z,5.50
2022-10-16T22:01:16.203Z,5.05
2022-10-16T22:03:43.710Z,3.45
2022-10-16T22:06:11.855Z,3.90
2022-10-16T22:08:39.271Z,3.42
2022-10-16T22:11:09.498Z,5.38
2022-10-16T22:13:36.769Z,4.03
2022-10-16T22:16:04.229Z,3.47
2022-10-16T22:18:32.084Z,4.90
2022-10-16T22:20:58.931Z,3.40
2022-10-16T22:23:25.687Z,2.85
2022-10-16T22:25:52.528Z,11.95
2022-10-16T22:28:19.826Z,7.75
2022-10-16T22:30:46.515Z,3.65
2022-10-16T22:33:13.059Z,5.35
2022-10-16T22:35:40.536Z,4.05
2022-10-16T22:38:07.070Z,2.75
2022-10-16T22:40:34.685Z,3.28
2022-10-16T22:43:03.511Z,2.90
2022-10-16T22:45:34.446Z,2.58
2022-10-16T22:48:01.157Z,4.72
2022-10-16T22:50:27.856Z,5.00
2022-10-16T22:52:55.308Z,6.57
2022-10-16T22:55:22.671Z,3.47
2022-10-16T22:57:49.382Z,4.28
2022-10-16T23:00:18.756Z,3.08
2022-10-16T23:02:45.858Z,4.68
2022-10-16T23:05:12.472Z,4.07
2022-10-16T23:07:39.017Z,2.95
2022-10-16T23:10:07.379Z,4.80
2022-10-16T23:12:38.230Z,4.82
2022-10-16T23:15:08.670Z,7.88
2022-10-16T23:17:35.154Z,5.80
2022-10-16T23:20:01.650Z,4.97
2022-10-16T23:22:28.336Z,4.35
2022-10-16T23:24:55.007Z,4.40
2022-10-16T23:27:21.637Z,5.00
2022-10-16T23:29:48.168Z,4.93
2022-10-16T23:32:17.699Z,4.53
2022-10-16T23:34:44.168Z,7.68
2022-10-16T23:37:10.710Z,5.03
2022-10-16T23:39:37.195Z,3.38
2022-10-16T23:42:03.809Z,3.10
2022-10-16T23:44:30.290Z,4.03
2022-10-16T23:46:56.850Z,5.25
2022-10-16T23:49:23.418Z,4.43
2022-10-16T23:51:49.884Z,4.53
2022-10-16T23:54:16.446Z,5.20
2022-10-16T23:56:42.896Z,5.95
2022-10-16T23:59:12.780Z,4.38
